createdAt,value
2023-05-08T00:00:39.393Z,14.50
2023-05-08T00:03:06.116Z,14.55
2023-05-08T00:05:32.917Z,14.55
2023-05-08T00:08:02.998Z,14.52
2023-05-08T00:10:29.904Z,14.59
2023-05-08T00:12:59.243Z,14.64
2023-05-08T00:15:28.276Z,14.68
2023-05-08T00:17:57.741Z,14.71
2023-05-08T00:20:24.358Z,14.73
2023-05-08T00:22:50.942Z,14.66
2023-05-08T00:25:17.581Z,14.62
2023-05-08T00:27:44.195Z,14.57
2023-05-08T00:30:11.281Z,14.56
2023-05-08T00:32:41.184Z,14.52
2023-05-08T00:35:10.334Z,14.47
2023-05-08T00:37:37.902Z,14.39
2023-05-08T00:40:04.719Z,14.44
2023-05-08T00:42:31.771Z,14.42
2023-05-08T00:44:58.420Z,14.35
2023-05-08T00:47:25.010Z,14.23
2023-05-08T00:49:54.482Z,14.16
2023-05-08T00:52:21.102Z,14.12
2023-05-08T00:54:47.710Z,14.05
2023-05-08T00:57:14.459Z,13.98
2023-05-08T00:59:41.896Z,13.94
2023-05-08T01:02:08.795Z,13.84
2023-05-08T01:04:35.461Z,13.78
2023-05-08T01:07:04.449Z,13.71
2023-05-08T01:09:31.122Z,13.64
2023-05-08T01:12:03.874Z,13.61
2023-05-08T01:14:41.947Z,13.54
2023-05-08T01:17:12.943Z,13.49
2023-05-08T01:19:57.193Z,13.48
2023-05-08T01:22:26.733Z,13.44
2023-05-08T01:24:56.921Z,13.42
2023-05-08T01:27:35.962Z,13.44
2023-05-08T01:30:05.338Z,13.40
2023-05-08T01:32:39.749Z,13.39
2023-05-08T01:35:16.389Z,13.41
2023-05-08T01:37:54.360Z,13.39
2023-05-08T01:40:21.468Z,13.36
2023-05-08T01:42:58.605Z,13.35
2023-05-08T01:45:45.594Z,13.37
2023-05-08T01:48:13.829Z,13.39
2023-05-08T01:50:48.685Z,13.45
2023-05-08T01:53:25.565Z,13.50
2023-05-08T01:55:53.975Z,13.44
2023-05-08T01:58:20.770Z,13.44
2023-05-08T02:00:47.453Z,13.47
2023-05-08T02:03:14.195Z,13.47
2023-05-08T02:05:41.017Z,13.46
2023-05-08T02:08:11.012Z,13.48
2023-05-08T02:10:40.553Z,13.44
2023-05-08T02:13:10.151Z,13.40
2023-05-08T02:15:39.309Z,13.39
2023-05-08T02:18:07.730Z,13.49
2023-05-08T02:20:36.770Z,13.59
2023-05-08T02:23:03.361Z,13.64
2023-05-08T02:25:32.206Z,13.58
2023-05-08T02:27:58.795Z,13.50
2023-05-08T02:30:26.324Z,13.52
2023-05-08T02:32:53.354Z,13.56
2023-05-08T02:35:23.395Z,13.58
2023-05-08T02:37:51.936Z,13.57
2023-05-08T02:40:21.791Z,13.47
2023-05-08T02:42:48.534Z,13.33
2023-05-08T02:45:15.702Z,13.29
2023-05-08T02:47:55.903Z,13.30
2023-05-08T02:50:38.118Z,13.25
2023-05-08T02:53:08.371Z,13.17
2023-05-08T02:55:40.651Z,13.07
2023-05-08T02:58:25.128Z,12.99
2023-05-08T03:01:06.680Z,13.02
2023-05-08T03:03:43.821Z,12.99
2023-05-08T03:06:13.823Z,12.90
2023-05-08T03:08:40.953Z,12.87
2023-05-08T03:11:15.204Z,12.86
2023-05-08T03:13:45.095Z,12.80
2023-05-08T03:16:12.931Z,12.91
2023-05-08T03:18:45.737Z,13.04
2023-05-08T03:21:13.211Z,13.16
2023-05-08T03:23:42.222Z,13.23
2023-05-08T03:26:11.059Z,13.26
2023-05-08T03:28:40.333Z,13.31
2023-05-08T03:31:07.168Z,13.38
2023-05-08T03:33:33.952Z,13.46
2023-05-08T03:36:00.626Z,13.47
2023-05-08T03:38:27.228Z,13.46
2023-05-08T03:40:59.265Z,13.50
2023-05-08T03:43:28.873Z,13.53
2023-05-08T03:46:00.486Z,13.53
2023-05-08T03:48:27.232Z,13.57
2023-05-08T03:50:56.986Z,13.64
2023-05-08T03:53:23.681Z,13.67
2023-05-08T03:55:50.795Z,13.75
2023-05-08T03:58:17.450Z,13.82
2023-05-08T04:01:10.640Z,13.88
2023-05-08T04:03:56.134Z,13.93
2023-05-08T04:06:35.728Z,13.80
2023-05-08T04:09:25.142Z,13.57
2023-05-08T04:11:54.222Z,13.57
2023-05-08T04:14:21.673Z,13.73
2023-05-08T04:16:49.245Z,13.79
2023-05-08T04:19:25.485Z,13.89
2023-05-08T04:21:55.803Z,13.98
2023-05-08T04:24:22.811Z,14.04
2023-05-08T04:26:50.883Z,13.91
2023-05-08T04:29:19.947Z,13.99
2023-05-08T04:31:50.996Z,14.09
2023-05-08T04:34:18.057Z,14.19
2023-05-08T04:36:45.301Z,14.20
2023-05-08T04:39:11.944Z,14.22
2023-05-08T04:41:41.379Z,14.24
2023-05-08T04:44:11.580Z,14.29
2023-05-08T04:46:38.588Z,14.40
2023-05-08T04:49:07.498Z,14.45
2023-05-08T04:51:34.168Z,14.51
2023-05-08T04:54:00.905Z,14.31
2023-05-08T04:56:28.337Z,14.26
2023-05-08T04:58:55.091Z,14.36
2023-05-08T05:01:23.057Z,14.44
2023-05-08T05:03:50.008Z,14.47
2023-05-08T05:06:16.784Z,14.48
2023-05-08T05:08:44.276Z,14.52
2023-05-08T05:11:10.875Z,14.62
2023-05-08T05:13:37.551Z,14.65
2023-05-08T05:16:04.282Z,14.65
2023-05-08T05:18:31.282Z,14.66
2023-05-08T05:21:00.062Z,14.59
2023-05-08T05:23:28.915Z,14.49
2023-05-08T05:25:55.875Z,14.49
2023-05-08T05:28:26.273Z,14.42
2023-05-08T05:30:53.372Z,14.53
2023-05-08T05:33:20.124Z,14.58
2023-05-08T05:35:49.124Z,14.66
2023-05-08T05:38:15.681Z,14.80
2023-05-08T05:40:44.821Z,14.76
2023-05-08T05:43:14.386Z,14.61
2023-05-08T05:45:41.254Z,14.53
2023-05-08T05:48:08.482Z,14.60
2023-05-08T05:50:35.232Z,14.51
2023-05-08T05:53:01.983Z,14.31
2023-05-08T05:55:28.716Z,14.43
2023-05-08T05:57:55.581Z,14.52
2023-05-08T06:00:25.602Z,14.70
2023-05-08T06:02:55.395Z,14.90
2023-05-08T06:05:24.557Z,15.09
2023-05-08T06:07:53.790Z,15.23
2023-05-08T06:10:20.443Z,15.34
2023-05-08T06:12:50.124Z,15.49
2023-05-08T06:15:16.926Z,15.66
2023-05-08T06:17:45.663Z,15.77
2023-05-08T06:20:12.722Z,15.89
2023-05-08T06:22:40.246Z,16.02
2023-05-08T06:25:07.229Z,16.08
2023-05-08T06:27:36.897Z,16.00
2023-05-08T06:30:08.688Z,15.94
2023-05-08T06:32:35.373Z,16.00
2023-05-08T06:35:04.597Z,16.20
2023-05-08T06:37:34.075Z,16.35
2023-05-08T06:40:11.506Z,16.60
2023-05-08T06:42:38.991Z,16.82
2023-05-08T06:45:11.375Z,16.84
2023-05-08T06:47:38.281Z,16.65
2023-05-08T06:50:05.453Z,16.26
2023-05-08T06:52:32.066Z,16.15
2023-05-08T06:55:01.145Z,16.22
2023-05-08T06:57:29.332Z,16.28
2023-05-08T07:00:00.556Z,16.43
2023-05-08T07:02:27.224Z,16.61
2023-05-08T07:04:53.975Z,16.73
2023-05-08T07:07:22.933Z,16.77
2023-05-08T07:09:49.790Z,16.90
2023-05-08T07:12:16.792Z,16.88
2023-05-08T07:14:45.893Z,16.98
2023-05-08T07:17:15.056Z,16.98
2023-05-08T07:19:42.078Z,17.08
2023-05-08T07:22:08.806Z,16.92
2023-05-08T07:24:35.425Z,17.03
2023-05-08T07:27:02.194Z,16.86
2023-05-08T07:29:35.980Z,16.79
2023-05-08T07:32:05.249Z,16.93
2023-05-08T07:34:33.162Z,16.76
2023-05-08T07:37:02.701Z,16.79
2023-05-08T07:39:31.848Z,16.96
2023-05-08T07:41:58.417Z,16.91
2023-05-08T07:44:27.072Z,16.90
2023-05-08T07:46:58.372Z,16.52
2023-05-08T07:49:25.086Z,16.15
2023-05-08T07:51:51.812Z,16.20
2023-05-08T07:54:21.079Z,16.11
2023-05-08T07:56:47.685Z,16.09
2023-05-08T07:59:14.282Z,16.13
2023-05-08T08:01:47.359Z,16.19
2023-05-08T08:04:16.767Z,16.12
2023-05-08T08:06:43.426Z,16.11
2023-05-08T08:09:17.216Z,16.34
2023-05-08T08:11:43.808Z,16.39
2023-05-08T08:14:10.823Z,16.33
2023-05-08T08:16:37.443Z,16.41
2023-05-08T08:19:04.122Z,16.47
2023-05-08T08:21:31.582Z,16.50
2023-05-08T08:23:59.007Z,16.45
2023-05-08T08:26:25.635Z,16.33
2023-05-08T08:28:52.166Z,16.40
2023-05-08T08:31:21.364Z,16.44
2023-05-08T08:33:53.116Z,16.44
2023-05-08T08:36:20.031Z,16.46
2023-05-08T08:38:46.611Z,16.58
2023-05-08T08:41:16.246Z,16.80
2023-05-08T08:43:43.883Z,16.96
2023-05-08T08:46:14.758Z,17.09
2023-05-08T08:48:47.942Z,17.11
2023-05-08T08:51:18.364Z,17.07
2023-05-08T08:53:48.974Z,17.23
2023-05-08T08:56:15.613Z,17.36
2023-05-08T08:58:51.166Z,17.50
2023-05-08T09:01:20.057Z,17.54
2023-05-08T09:03:49.662Z,17.68
2023-05-08T09:06:17.249Z,17.63
2023-05-08T09:08:43.805Z,17.46
2023-05-08T09:11:14.988Z,17.41
2023-05-08T09:13:42.000Z,17.51
2023-05-08T09:16:11.259Z,17.71
2023-05-08T09:18:42.376Z,17.83
2023-05-08T09:21:11.440Z,17.96
2023-05-08T09:23:41.000Z,18.14
2023-05-08T09:26:07.642Z,18.27
2023-05-08T09:28:39.257Z,18.45
2023-05-08T09:31:07.942Z,18.30
2023-05-08T09:33:34.621Z,18.42
2023-05-08T09:36:01.188Z,18.41
2023-05-08T09:38:31.782Z,18.44
2023-05-08T09:41:15.677Z,18.54
2023-05-08T09:43:43.522Z,18.83
2023-05-08T09:46:19.536Z,18.88
2023-05-08T09:48:49.046Z,18.95
2023-05-08T09:51:15.819Z,19.11
2023-05-08T09:53:42.458Z,19.16
2023-05-08T09:56:09.247Z,19.41
2023-05-08T09:58:41.896Z,19.35
2023-05-08T10:01:11.453Z,19.30
2023-05-08T10:03:50.442Z,19.53
2023-05-08T10:06:17.119Z,19.63
2023-05-08T10:08:46.606Z,19.77
2023-05-08T10:11:16.714Z,19.91
2023-05-08T10:13:48.451Z,20.04
2023-05-08T10:16:17.848Z,20.07
2023-05-08T10:18:47.831Z,20.16
2023-05-08T10:21:17.354Z,20.43
2023-05-08T10:23:44.788Z,20.71
2023-05-08T10:26:17.144Z,20.71
2023-05-08T10:28:59.499Z,20.99
2023-05-08T10:31:27.338Z,21.31
2023-05-08T10:33:57.033Z,21.18
2023-05-08T10:36:23.958Z,21.17
2023-05-08T10:38:51.050Z,21.34
2023-05-08T10:41:18.031Z,21.41
2023-05-08T10:43:44.771Z,21.69
2023-05-08T10:46:34.020Z,21.78
2023-05-08T10:49:05.518Z,22.19
2023-05-08T10:52:01.249Z,22.22
2023-05-08T10:54:39.778Z,22.13
2023-05-08T10:57:12.708Z,22.19
2023-05-08T10:59:43.268Z,22.56
2023-05-08T11:02:10.357Z,22.89
2023-05-08T11:04:38.398Z,22.95
2023-05-08T11:07:05.442Z,23.20
2023-05-08T11:09:43.651Z,23.31
2023-05-08T11:12:10.507Z,23.35
2023-05-08T11:14:40.977Z,23.31
2023-05-08T11:17:10.327Z,23.57
2023-05-08T11:19:39.969Z,23.71
2023-05-08T11:22:16.025Z,23.43
2023-05-08T11:24:48.885Z,23.58
2023-05-08T11:27:17.952Z,24.01
2023-05-08T11:29:45.287Z,24.37
2023-05-08T11:32:14.668Z,24.60
2023-05-08T11:34:43.678Z,24.65
2023-05-08T11:37:13.587Z,25.23
2023-05-08T11:39:40.166Z,25.66
2023-05-08T11:42:25.137Z,26.10
2023-05-08T11:45:00.349Z,26.35
2023-05-08T11:47:28.314Z,26.34
2023-05-08T11:49:55.291Z,25.59
2023-05-08T11:52:21.935Z,25.73
2023-05-08T11:54:48.480Z,26.11
2023-05-08T11:57:17.521Z,26.45
2023-05-08T11:59:44.895Z,26.79
2023-05-08T12:02:11.541Z,27.24
2023-05-08T12:04:45.505Z,27.45
2023-05-08T12:07:12.515Z,28.08
2023-05-08T12:09:39.191Z,28.46
2023-05-08T12:12:05.844Z,28.25
2023-05-08T12:14:32.420Z,28.49
2023-05-08T12:16:59.061Z,29.06
2023-05-08T12:19:25.774Z,28.80
2023-05-08T12:21:57.015Z,28.63
2023-05-08T12:24:24.303Z,29.52
2023-05-08T12:26:53.422Z,29.85
2023-05-08T12:29:27.235Z,29.49
2023-05-08T12:31:54.361Z,29.82
2023-05-08T12:34:21.048Z,30.71
2023-05-08T12:36:57.385Z,31.00
2023-05-08T12:39:25.590Z,31.43
2023-05-08T12:41:55.094Z,31.86
2023-05-08T12:44:25.272Z,32.83
2023-05-08T12:46:58.454Z,33.62
2023-05-08T12:49:29.192Z,34.07
2023-05-08T12:52:08.130Z,35.10
2023-05-08T12:54:34.775Z,36.04
2023-05-08T12:57:01.387Z,37.00
2023-05-08T12:59:34.019Z,37.87
2023-05-08T13:02:00.639Z,38.82
2023-05-08T13:04:27.374Z,39.28
2023-05-08T13:06:57.521Z,39.89
2023-05-08T13:09:24.153Z,38.38
2023-05-08T13:11:50.847Z,39.11
2023-05-08T13:14:17.439Z,39.69
2023-05-08T13:16:51.765Z,40.37
2023-05-08T13:19:19.091Z,41.09
2023-05-08T13:21:48.279Z,41.22
2023-05-08T13:24:15.155Z,41.11
2023-05-08T13:26:44.190Z,41.30
2023-05-08T13:29:11.004Z,41.99
2023-05-08T13:31:37.753Z,42.45
2023-05-08T13:34:06.932Z,43.01
2023-05-08T13:36:33.561Z,43.33
2023-05-08T13:39:00.188Z,43.69
2023-05-08T13:41:29.288Z,43.65
2023-05-08T13:43:58.619Z,43.77
2023-05-08T13:46:25.393Z,43.66
2023-05-08T13:48:52.065Z,43.16
2023-05-08T13:51:21.104Z,42.84
2023-05-08T13:53:50.757Z,42.97
2023-05-08T13:56:19.823Z,43.36
2023-05-08T13:58:49.017Z,43.76
2023-05-08T14:01:26.408Z,43.94
2023-05-08T14:03:54.876Z,44.56
2023-05-08T14:06:21.815Z,44.32
2023-05-08T14:08:51.474Z,44.50
2023-05-08T14:11:19.515Z,44.44
2023-05-08T14:13:46.092Z,44.30
2023-05-08T14:16:17.771Z,44.87
2023-05-08T14:18:49.122Z,44.98
2023-05-08T14:21:18.097Z,44.25
2023-05-08T14:23:45.151Z,44.33
2023-05-08T14:26:11.769Z,44.11
2023-05-08T14:28:41.295Z,44.50
2023-05-08T14:31:07.898Z,44.66
2023-05-08T14:33:34.522Z,44.97
2023-05-08T14:36:01.088Z,44.73
2023-05-08T14:38:30.241Z,44.60
2023-05-08T14:40:56.821Z,44.29
2023-05-08T14:43:23.474Z,44.49
2023-05-08T14:45:50.169Z,44.74
2023-05-08T14:48:16.808Z,44.79
2023-05-08T14:50:50.835Z,44.64
2023-05-08T14:53:20.666Z,44.39
2023-05-08T14:55:47.732Z,44.15
2023-05-08T14:58:17.466Z,43.73
2023-05-08T15:00:44.124Z,43.79
2023-05-08T15:03:10.979Z,42.70
2023-05-08T15:05:40.197Z,42.26
2023-05-08T15:08:07.132Z,42.34
2023-05-08T15:10:36.783Z,42.39
2023-05-08T15:13:08.055Z,41.79
2023-05-08T15:15:34.751Z,41.51
2023-05-08T15:18:03.824Z,41.27
2023-05-08T15:20:32.761Z,41.29
2023-05-08T15:22:59.359Z,41.22
2023-05-08T15:25:30.840Z,41.38
2023-05-08T15:27:58.284Z,40.76
2023-05-08T15:30:25.028Z,40.37
2023-05-08T15:32:52.795Z,40.33
2023-05-08T15:35:19.524Z,39.87
2023-05-08T15:37:48.346Z,38.75
2023-05-08T15:40:14.967Z,37.42
2023-05-08T15:42:41.546Z,36.26
2023-05-08T15:45:10.635Z,35.54
2023-05-08T15:47:38.413Z,34.61
2023-05-08T15:50:07.555Z,33.80
2023-05-08T15:52:34.114Z,33.13
2023-05-08T15:55:03.053Z,32.28
2023-05-08T15:57:29.732Z,31.15
2023-05-08T15:59:59.148Z,30.58
2023-05-08T16:02:26.018Z,30.02
2023-05-08T16:04:52.765Z,29.53
2023-05-08T16:07:21.716Z,28.95
2023-05-08T16:09:51.392Z,28.50
2023-05-08T16:12:19.652Z,28.32
2023-05-08T16:14:46.417Z,28.03
2023-05-08T16:17:17.642Z,27.68
2023-05-08T16:19:44.245Z,27.35
2023-05-08T16:22:11.069Z,26.99
2023-05-08T16:24:37.684Z,26.77
2023-05-08T16:27:07.308Z,26.34
2023-05-08T16:29:34.009Z,26.08
2023-05-08T16:32:00.956Z,25.79
2023-05-08T16:34:27.497Z,25.47
2023-05-08T16:36:54.138Z,25.07
2023-05-08T16:39:20.850Z,24.44
2023-05-08T16:41:47.545Z,24.15
2023-05-08T16:44:16.605Z,23.94
2023-05-08T16:46:45.814Z,23.82
2023-05-08T16:49:14.990Z,23.76
2023-05-08T16:51:41.935Z,23.71
2023-05-08T16:54:08.482Z,23.71
2023-05-08T16:56:37.713Z,23.73
2023-05-08T16:59:06.713Z,23.65
2023-05-08T17:01:34.026Z,23.49
2023-05-08T17:04:00.715Z,23.33
2023-05-08T17:06:28.554Z,23.06
2023-05-08T17:08:55.242Z,22.73
2023-05-08T17:11:21.992Z,22.43
2023-05-08T17:13:50.944Z,22.26
2023-05-08T17:16:19.814Z,21.97
2023-05-08T17:18:47.110Z,21.73
2023-05-08T17:21:16.670Z,21.43
2023-05-08T17:23:45.818Z,21.26
2023-05-08T17:26:14.728Z,21.03
2023-05-08T17:28:41.336Z,20.66
2023-05-08T17:31:08.011Z,20.49
2023-05-08T17:33:34.735Z,20.37
2023-05-08T17:36:01.828Z,20.21
2023-05-08T17:38:30.957Z,20.02
2023-05-08T17:40:57.611Z,19.90
2023-05-08T17:43:24.542Z,19.79
2023-05-08T17:45:53.492Z,19.51
2023-05-08T17:48:22.571Z,19.31
2023-05-08T17:50:49.187Z,19.19
2023-05-08T17:53:15.890Z,18.96
2023-05-08T17:55:44.793Z,18.76
2023-05-08T17:58:13.926Z,18.66
2023-05-08T18:00:42.836Z,18.55
2023-05-08T18:03:09.651Z,18.37
2023-05-08T18:05:37.455Z,18.16
2023-05-08T18:08:04.217Z,17.99
2023-05-08T18:10:33.257Z,17.81
2023-05-08T18:12:59.882Z,17.67
2023-05-08T18:15:26.611Z,17.56
2023-05-08T18:17:53.820Z,17.44
2023-05-08T18:20:20.981Z,17.31
2023-05-08T18:22:47.709Z,17.20
2023-05-08T18:25:16.648Z,17.09
2023-05-08T18:27:48.623Z,16.99
2023-05-08T18:30:15.600Z,16.84
2023-05-08T18:32:42.831Z,16.78
2023-05-08T18:35:11.927Z,16.70
2023-05-08T18:37:38.599Z,16.64
2023-05-08T18:40:05.830Z,16.56
2023-05-08T18:42:34.976Z,16.43
2023-05-08T18:45:03.030Z,16.38
2023-05-08T18:47:31.990Z,16.30
2023-05-08T18:50:02.430Z,16.19
2023-05-08T18:52:34.223Z,16.11
2023-05-08T18:55:01.068Z,15.98
2023-05-08T18:57:27.707Z,15.92
2023-05-08T18:59:56.816Z,15.90
2023-05-08T19:02:28.113Z,15.81
2023-05-08T19:04:54.885Z,15.73
2023-05-08T19:07:21.576Z,15.64
2023-05-08T19:09:50.518Z,15.62
2023-05-08T19:12:17.216Z,15.57
2023-05-08T19:14:46.245Z,15.50
2023-05-08T19:17:12.839Z,15.49
2023-05-08T19:19:39.418Z,15.48
2023-05-08T19:22:05.992Z,15.48
2023-05-08T19:24:34.940Z,15.57
2023-05-08T19:27:04.223Z,15.50
2023-05-08T19:29:31.321Z,15.52
2023-05-08T19:31:58.999Z,15.52
2023-05-08T19:34:25.856Z,15.52
2023-05-08T19:36:52.477Z,15.50
2023-05-08T19:39:21.854Z,15.37
2023-05-08T19:41:48.537Z,15.23
2023-05-08T19:44:15.123Z,15.17
2023-05-08T19:46:42.705Z,15.09
2023-05-08T19:49:14.044Z,15.07
2023-05-08T19:51:48.612Z,15.17
2023-05-08T19:54:15.241Z,15.25
2023-05-08T19:56:44.535Z,15.27
2023-05-08T19:59:11.155Z,15.28
2023-05-08T20:01:40.686Z,15.23
2023-05-08T20:04:07.867Z,15.18
2023-05-08T20:06:34.684Z,15.18
2023-05-08T20:09:03.816Z,15.21
2023-05-08T20:11:30.544Z,15.23
2023-05-08T20:13:57.298Z,15.18
2023-05-08T20:16:24.020Z,15.10
2023-05-08T20:18:50.684Z,15.00
2023-05-08T20:21:17.431Z,14.91
2023-05-08T20:23:44.261Z,14.82
2023-05-08T20:26:11.710Z,14.74
2023-05-08T20:28:38.446Z,14.63
2023-05-08T20:31:08.235Z,14.50
2023-05-08T20:33:35.197Z,14.43
2023-05-08T20:36:01.869Z,14.34
2023-05-08T20:38:28.827Z,14.29
2023-05-08T20:41:00.141Z,14.24
2023-05-08T20:43:27.917Z,14.25
2023-05-08T20:45:57.035Z,14.20
2023-05-08T20:48:23.829Z,14.05
2023-05-08T20:50:50.494Z,14.06
2023-05-08T20:53:19.499Z,14.03
2023-05-08T20:55:51.105Z,13.97
2023-05-08T20:58:20.151Z,13.95
2023-05-08T21:00:46.718Z,13.92
2023-05-08T21:03:16.394Z,13.91
2023-05-08T21:05:43.012Z,13.83
2023-05-08T21:08:09.572Z,13.77
2023-05-08T21:10:41.010Z,13.77
2023-05-08T21:13:07.898Z,13.74
2023-05-08T21:15:37.411Z,13.63
2023-05-08T21:18:07.221Z,13.68
2023-05-08T21:20:36.358Z,13.64
2023-05-08T21:23:03.133Z,13.64
2023-05-08T21:25:30.761Z,13.59
2023-05-08T21:27:57.406Z,13.59
2023-05-08T21:30:24.009Z,13.54
2023-05-08T21:32:51.185Z,13.50
2023-05-08T21:35:20.469Z,13.40
2023-05-08T21:37:50.302Z,13.42
2023-05-08T21:40:18.074Z,13.37
2023-05-08T21:42:47.077Z,13.36
2023-05-08T21:45:15.905Z,13.36
2023-05-08T21:47:42.916Z,13.28
2023-05-08T21:50:09.840Z,13.27
2023-05-08T21:52:36.447Z,13.22
2023-05-08T21:55:08.385Z,13.18
2023-05-08T21:57:37.567Z,13.18
2023-05-08T22:00:05.396Z,13.15
2023-05-08T22:02:34.995Z,13.10
2023-05-08T22:05:02.135Z,13.05
2023-05-08T22:07:29.057Z,12.98
2023-05-08T22:09:55.702Z,12.94
2023-05-08T22:12:24.671Z,12.87
2023-05-08T22:14:51.512Z,12.93
2023-05-08T22:17:21.046Z,12.94
2023-05-08T22:19:50.202Z,12.88
2023-05-08T22:22:19.728Z,12.86
2023-05-08T22:24:46.663Z,12.78
2023-05-08T22:27:13.316Z,12.72
2023-05-08T22:29:40.047Z,12.64
2023-05-08T22:32:08.579Z,12.58
2023-05-08T22:34:35.324Z,12.58
2023-05-08T22:37:07.025Z,12.52
2023-05-08T22:39:33.672Z,12.48
2023-05-08T22:42:00.386Z,12.29
2023-05-08T22:44:27.205Z,12.28
2023-05-08T22:46:53.884Z,12.33
2023-05-08T22:49:20.543Z,12.31
2023-05-08T22:51:47.153Z,12.31
2023-05-08T22:54:13.817Z,12.21
2023-05-08T22:56:42.823Z,12.18
2023-05-08T22:59:11.915Z,12.17
2023-05-08T23:01:38.676Z,12.20
2023-05-08T23:04:07.878Z,12.14
2023-05-08T23:06:36.935Z,12.14
2023-05-08T23:09:04.738Z,12.16
2023-05-08T23:11:31.977Z,12.17
2023-05-08T23:14:01.034Z,12.22
2023-05-08T23:16:27.944Z,12.21
2023-05-08T23:18:54.657Z,12.14
2023-05-08T23:21:23.706Z,12.07
2023-05-08T23:23:52.931Z,12.08
2023-05-08T23:26:19.565Z,12.13
2023-05-08T23:28:49.035Z,12.14
2023-05-08T23:31:16.576Z,12.16
2023-05-08T23:33:46.043Z,12.10
2023-05-08T23:36:12.614Z,12.08
2023-05-08T23:38:41.988Z,12.04
2023-05-08T23:41:11.683Z,12.01
2023-05-08T23:43:38.325Z,11.94
2023-05-08T23:46:04.991Z,11.91
2023-05-08T23:48:34.634Z,11.89
2023-05-08T23:51:03.720Z,11.86
2023-05-08T23:53:33.070Z,11.85
2023-05-08T23:55:59.708Z,11.88
2023-05-08T23:58:26.868Z,11.91
